Catàleg de serveis del Meteocat
Campanya meteocatpedra

Dades de l'estació automàtica Alfarràs

?
?
Resum diari 21:30 TU
Dades diàries de l'estació meteorològica
Temperatura mitjana 21.3 °C
Temperatura màxima 28.5 °C 14:17 TU
Temperatura mínima 16.2 °C 2:00 TU
Humitat relativa mitjana 76%
Precipitació acumulada 3.7 mm
Ratxa màxima del vent (2 m) 20.2 km/h - 133º 10:11 TU

El tram horari està expressat en Temps Universal (TU). Cal sumar una hora en horari d'hivern i dues en horari d'estiu per passar a l'hora oficial.

Alfarràs

Metadades estació meteorol´gica
Municipi Alfarràs
Comarca Segrià
Altitud 268 m
Data alta 17.09.1997
Estat actual Operativa
Dades de període
Període
TU
TM
°C
TX
°C
TN
°C
HRM
%
PPT
mm
VVM (2 m)
km/h
DVM (2 m)
graus
VVX (2 m)
km/h
00:00 - 00:30 16.8 17.1 16.5 92 0.0 0.4 56 2.5
00:30 - 01:00 16.4 16.6 16.3 94 0.0 0.0 0 0.0
01:00 - 01:30 16.3 16.3 16.2 95 0.0 0.0 67 2.2
01:30 - 02:00 16.2 16.3 16.2 96 0.0 0.0 67 1.1
02:00 - 02:30 16.4 17.2 16.2 96 0.0 0.4 165 3.6
02:30 - 03:00 18.3 19.3 17.3 88 0.0 2.5 131 8.3
03:00 - 03:30 19.6 19.9 19.4 82 0.0 4.3 104 12.2
03:30 - 04:00 19.7 19.9 19.3 81 0.0 1.8 99 8.3
04:00 - 04:30 19.0 19.2 18.9 86 0.0 1.1 72 4.7
04:30 - 05:00 19.3 19.4 19.2 83 0.0 1.4 70 8.6
05:00 - 05:30 19.5 19.7 19.1 81 0.0 2.5 134 8.6
05:30 - 06:00 18.3 19.1 17.4 91 3.2 4.0 116 11.9
06:00 - 06:30 17.2 17.4 17.2 96 0.5 1.8 207 7.2
06:30 - 07:00 17.2 17.4 17.1 97 0.0 0.7 312 3.2
07:00 - 07:30 17.3 17.5 17.2 99 0.0 0.7 4 3.2
07:30 - 08:00 17.5 17.9 17.3 99 0.0 0.7 289 2.5
08:00 - 08:30 18.1 18.4 17.9 96 0.0 1.8 303 5.4
08:30 - 09:00 18.7 19.3 18.5 96 0.0 1.1 78 5.0
09:00 - 09:30 20.3 21.6 19.4 86 0.0 2.5 143 5.8
09:30 - 10:00 22.4 23.9 21.2 76 0.0 3.6 164 13.7
10:00 - 10:30 23.6 24.2 23.1 67 0.0 7.9 132 20.2
10:30 - 11:00 24.3 24.7 23.8 64 0.0 6.8 145 14.0
11:00 - 11:30 24.7 25.4 24.2 62 0.0 6.8 132 16.9
11:30 - 12:00 25.2 25.6 24.7 61 0.0 6.5 146 13.7
12:00 - 12:30 26.1 26.5 25.5 57 0.0 4.3 150 14.0
12:30 - 13:00 26.7 27.2 25.6 52 0.0 2.5 158 9.7
13:00 - 13:30 26.7 27.5 26.1 48 0.0 2.9 149 9.4
13:30 - 14:00 27.6 28.1 27.3 43 0.0 1.8 169 9.0
14:00 - 14:30 27.7 28.5 27.2 43 0.0 1.4 216 11.2
14:30 - 15:00 27.8 28.3 27.3 42 0.0 2.9 194 9.4
15:00 - 15:30 27.9 28.2 27.6 44 0.0 4.7 155 11.2
15:30 - 16:00 27.2 27.9 26.2 47 0.0 4.7 134 11.2
16:00 - 16:30 24.8 26.1 24.3 62 0.0 9.0 130 18.7
16:30 - 17:00 23.6 24.3 23.4 67 0.0 6.1 133 19.8
17:00 - 17:30 23.2 23.4 22.8 67 0.0 4.3 153 12.6
17:30 - 18:00 22.2 22.8 21.7 74 0.0 4.0 177 7.6
18:00 - 18:30 21.2 21.6 20.8 80 0.0 3.6 185 7.6
18:30 - 19:00 20.4 20.8 20.1 83 0.0 3.6 193 8.3
19:00 - 19:30 19.7 20.1 19.3 86 0.0 1.4 176 4.3
19:30 - 20:00 19.5 19.8 19.3 86 0.0 2.2 188 6.5
20:00 - 20:30 19.7 20.8 19.3 84 0.0 1.1 183 6.1
20:30 - 21:00 21.2 21.3 20.9 73 0.0 4.3 100 12.2
21:00 - 21:30 21.1 21.2 20.9 73 0.0 4.3 106 14.0
21:30 - 22:00 20.9 21.0 20.8 75 0.0 5.0 103 12.2

Les dades en taronja només han passat un control de qualitat automàtic. Resta pendent la seva validació definitiva.